createdAt,value
2022-12-18T00:02:17.509Z,-13.10
2022-12-18T00:07:20.764Z,-12.90
2022-12-18T00:12:24.181Z,-13.10
2022-12-18T00:17:28.843Z,-13.40
2022-12-18T00:22:32.293Z,-13.40
2022-12-18T00:27:35.619Z,-13.20
2022-12-18T00:32:40.267Z,-13.10
2022-12-18T00:37:43.590Z,-13.10
2022-12-18T00:42:59.386Z,-13.10
2022-12-18T00:48:04.890Z,-13.20
2022-12-18T00:53:08.450Z,-13.30
2022-12-18T00:58:13.299Z,-13.30
2022-12-18T01:03:17.894Z,-13.40
2022-12-18T01:08:21.145Z,-13.60
2022-12-18T01:13:24.505Z,-13.60
2022-12-18T01:18:29.141Z,-13.50
2022-12-18T01:23:32.283Z,-13.40
2022-12-18T01:28:35.493Z,-13.50
2022-12-18T01:33:40.559Z,-13.70
2022-12-18T01:38:44.150Z,-13.90
2022-12-18T01:43:53.791Z,-13.90
2022-12-18T01:49:01.747Z,-14.00
2022-12-18T01:54:05.033Z,-13.90
2022-12-18T01:59:12.281Z,-13.80
2022-12-18T02:04:25.222Z,-13.50
2022-12-18T02:09:34.266Z,-13.30
2022-12-18T02:14:43.741Z,-13.20
2022-12-18T02:20:04.682Z,-13.10
2022-12-18T02:25:23.372Z,-13.10
2022-12-18T02:30:31.546Z,-13.00
2022-12-18T02:35:36.394Z,-13.00
2022-12-18T02:40:41.015Z,-13.00
2022-12-18T02:45:52.794Z,-12.90
2022-12-18T02:51:06.187Z,-12.80
2022-12-18T02:56:15.658Z,-12.70
2022-12-18T03:01:30.529Z,-12.50
2022-12-18T03:06:39.375Z,-12.30
2022-12-18T03:12:03.800Z,-12.20
2022-12-18T03:17:12.319Z,-12.10
2022-12-18T03:22:17.917Z,-12.10
2022-12-18T03:27:23.717Z,-12.30
2022-12-18T03:32:33.121Z,-12.40
2022-12-18T03:37:36.996Z,-12.40
2022-12-18T03:42:48.883Z,-12.30
2022-12-18T03:48:01.960Z,-12.40
2022-12-18T03:53:15.176Z,-12.40
2022-12-18T03:58:21.757Z,-12.50
2022-12-18T04:03:32.951Z,-12.50
2022-12-18T04:08:37.069Z,-12.50
2022-12-18T04:13:41.722Z,-12.40
2022-12-18T04:18:46.674Z,-12.30
2022-12-18T04:23:50.179Z,-12.10
2022-12-18T04:28:53.525Z,-12.10
2022-12-18T04:33:58.163Z,-12.10
2022-12-18T04:39:01.570Z,-12.20
2022-12-18T04:44:04.924Z,-12.30
2022-12-18T04:49:11.567Z,-12.40
2022-12-18T04:54:14.877Z,-12.40
2022-12-18T04:59:18.115Z,-12.40
2022-12-18T05:04:22.734Z,-12.40
2022-12-18T05:09:26.220Z,-12.40
2022-12-18T05:14:30.435Z,-12.40
2022-12-18T05:19:35.196Z,-12.40
2022-12-18T05:24:38.513Z,-12.40
2022-12-18T05:29:41.688Z,-12.40
2022-12-18T05:34:46.329Z,-12.40
2022-12-18T05:39:49.630Z,-12.40
2022-12-18T05:44:53.034Z,-12.50
2022-12-18T05:49:57.748Z,-12.70
2022-12-18T05:55:01.153Z,-12.80
2022-12-18T06:00:05.062Z,-12.90
2022-12-18T06:05:10.205Z,-13.10
2022-12-18T06:10:13.785Z,-13.20
2022-12-18T06:15:17.765Z,-13.30
2022-12-18T06:20:22.766Z,-13.50
2022-12-18T06:25:26.307Z,-13.70
2022-12-18T06:30:29.593Z,-13.80
2022-12-18T06:35:34.271Z,-13.90
2022-12-18T06:40:39.951Z,-14.00
2022-12-18T06:45:43.329Z,-14.20
2022-12-18T06:50:47.997Z,-14.30
2022-12-18T06:55:51.251Z,-14.40
2022-12-18T07:00:54.517Z,-14.50
2022-12-18T07:05:59.395Z,-14.60
2022-12-18T07:11:05.793Z,-14.60
2022-12-18T07:16:18.395Z,-14.70
2022-12-18T07:21:26.533Z,-14.80
2022-12-18T07:26:31.880Z,-14.70
2022-12-18T07:31:35.273Z,-14.70
2022-12-18T07:36:40.234Z,-14.50
2022-12-18T07:41:47.518Z,-14.40
2022-12-18T07:46:50.852Z,-14.30
2022-12-18T07:51:57.118Z,-14.20
2022-12-18T07:57:00.475Z,-14.00
2022-12-18T08:02:04.176Z,-13.90
2022-12-18T08:07:08.877Z,-13.90
2022-12-18T08:12:12.059Z,-13.70
2022-12-18T08:17:15.372Z,-13.60
2022-12-18T08:22:20.000Z,-13.40
2022-12-18T08:27:29.920Z,-13.30
2022-12-18T08:32:34.938Z,-13.00
2022-12-18T08:37:39.797Z,-12.70
2022-12-18T08:43:01.079Z,-12.60
2022-12-18T08:48:04.343Z,-12.40
2022-12-18T08:53:09.157Z,-12.10
2022-12-18T08:58:15.640Z,-11.80
2022-12-18T09:03:20.861Z,-11.60
2022-12-18T09:08:28.635Z,-11.40
2022-12-18T09:13:31.972Z,-11.30
2022-12-18T09:18:35.158Z,-11.10
2022-12-18T09:23:39.861Z,-10.90
2022-12-18T09:28:43.590Z,-10.60
2022-12-18T09:33:47.158Z,-10.50
2022-12-18T09:38:51.907Z,-10.40
2022-12-18T09:43:57.787Z,-10.20
2022-12-18T09:49:05.558Z,-9.90
2022-12-18T09:54:15.034Z,-9.60
2022-12-18T09:59:25.798Z,-9.40
2022-12-18T10:04:32.847Z,-9.30
2022-12-18T10:09:44.058Z,-8.90
2022-12-18T10:15:00.906Z,-8.70
2022-12-18T10:20:11.676Z,-8.60
2022-12-18T10:25:24.932Z,-8.30
2022-12-18T10:30:28.693Z,-8.00
2022-12-18T10:35:31.847Z,-7.80
2022-12-18T10:40:51.163Z,-7.50
2022-12-18T10:46:03.919Z,-7.30
2022-12-18T10:51:12.445Z,-7.10
2022-12-18T10:56:23.437Z,-6.80
2022-12-18T11:01:26.939Z,-6.50
2022-12-18T11:06:30.738Z,-6.00
2022-12-18T11:11:36.825Z,-5.60
2022-12-18T11:16:57.996Z,-4.90
2022-12-18T11:22:22.842Z,-4.20
2022-12-18T11:27:28.346Z,-3.80
2022-12-18T11:32:37.453Z,-3.60
2022-12-18T11:37:43.929Z,-3.80
2022-12-18T11:42:54.238Z,-4.10
2022-12-18T11:48:03.814Z,-4.00
2022-12-18T11:53:11.438Z,-3.80
2022-12-18T11:58:25.220Z,-3.50
2022-12-18T12:04:17.765Z,-3.60
2022-12-18T12:09:28.699Z,-3.10
2022-12-18T12:14:46.962Z,-3.00
2022-12-18T12:20:00.181Z,-2.70
2022-12-18T12:25:19.559Z,-2.60
2022-12-18T12:30:31.646Z,-2.50
2022-12-18T12:35:49.791Z,-2.60
2022-12-18T12:41:02.448Z,-2.70
2022-12-18T12:46:09.910Z,-2.70
2022-12-18T12:51:18.886Z,-2.70
2022-12-18T12:56:24.664Z,-2.80
2022-12-18T13:01:37.184Z,-2.80
2022-12-18T13:06:48.271Z,-2.60
2022-12-18T13:12:08.789Z,-2.90
2022-12-18T13:17:32.071Z,-3.10
2022-12-18T13:22:38.532Z,-2.90
2022-12-18T13:28:01.802Z,-2.70
2022-12-18T13:39:38.653Z,-2.80
2022-12-18T13:44:42.951Z,-3.00
2022-12-18T13:49:46.561Z,-3.20
2022-12-18T13:54:54.751Z,-3.40
2022-12-18T13:59:59.678Z,-3.50
2022-12-18T14:05:03.338Z,-3.40
2022-12-18T14:10:47.909Z,-3.40
2022-12-18T14:15:44.594Z,-3.50
2022-12-18T14:20:52.694Z,-3.70
2022-12-18T14:26:03.624Z,-3.80
2022-12-18T14:31:20.341Z,-4.00
2022-12-18T14:36:25.472Z,-4.10
2022-12-18T14:41:30.422Z,-4.20
2022-12-18T14:46:37.788Z,-4.40
2022-12-18T14:51:41.133Z,-4.60
2022-12-18T14:56:48.401Z,-4.80
2022-12-18T15:02:00.320Z,-5.00
2022-12-18T15:07:14.876Z,-5.10
2022-12-18T15:12:30.786Z,-5.30
2022-12-18T15:17:34.188Z,-5.60
2022-12-18T15:22:38.933Z,-5.90
2022-12-18T15:27:49.606Z,-6.20
2022-12-18T15:32:53.810Z,-6.50
2022-12-18T15:37:57.108Z,-6.80
2022-12-18T15:43:19.132Z,-7.00
2022-12-18T15:48:25.143Z,-7.30
2022-12-18T15:53:32.365Z,-7.50
2022-12-18T15:58:37.102Z,-7.70
2022-12-18T16:03:41.094Z,-7.90
2022-12-18T16:08:45.607Z,-8.00
2022-12-18T16:13:50.413Z,-8.10
2022-12-18T16:18:55.006Z,-8.10
2022-12-18T16:23:58.509Z,-8.00
2022-12-18T16:29:03.439Z,-7.80
2022-12-18T16:34:22.761Z,-7.70
2022-12-18T16:39:27.441Z,-7.60
2022-12-18T16:44:36.644Z,-7.50
2022-12-18T16:49:41.031Z,-7.40
2022-12-18T16:54:44.374Z,-7.30
2022-12-18T16:59:50.956Z,-7.20
2022-12-18T17:04:55.975Z,-7.00
2022-12-18T17:09:59.275Z,-6.90
2022-12-18T17:15:03.937Z,-6.70
2022-12-18T17:20:08.030Z,-6.60
2022-12-18T17:25:11.348Z,-6.50
2022-12-18T17:30:16.863Z,-6.40
2022-12-18T17:35:20.209Z,-6.30
2022-12-18T17:40:23.556Z,-6.20
2022-12-18T17:45:28.427Z,-6.10
2022-12-18T17:50:34.115Z,-6.10
2022-12-18T17:55:37.477Z,-6.10
2022-12-18T18:00:42.451Z,-6.00
2022-12-18T18:05:46.002Z,-6.00
2022-12-18T18:10:51.601Z,-6.00
2022-12-18T18:16:02.457Z,-6.00
2022-12-18T18:21:06.355Z,-6.00
2022-12-18T18:26:11.302Z,-6.00
2022-12-18T18:31:16.179Z,-5.90
2022-12-18T18:36:19.640Z,-5.90
2022-12-18T18:41:24.905Z,-5.90
2022-12-18T18:46:29.821Z,-5.80
2022-12-18T18:51:35.334Z,-5.70
2022-12-18T19:02:04.550Z,-5.60
2022-12-18T19:07:08.670Z,-5.60
2022-12-18T19:12:29.810Z,-5.60
2022-12-18T19:17:35.052Z,-5.60
2022-12-18T19:22:38.697Z,-5.60
2022-12-18T19:27:42.965Z,-5.60
2022-12-18T19:32:49.397Z,-5.60
2022-12-18T19:37:54.090Z,-5.60
2022-12-18T19:42:57.501Z,-5.70
2022-12-18T19:48:04.475Z,-5.80
2022-12-18T19:53:08.645Z,-5.80
2022-12-18T19:58:13.134Z,-5.70
2022-12-18T20:03:25.983Z,-5.70
2022-12-18T20:08:34.953Z,-5.70
2022-12-18T20:13:38.568Z,-5.70
2022-12-18T20:18:43.444Z,-5.60
2022-12-18T20:23:47.554Z,-5.60
2022-12-18T20:28:50.803Z,-5.50
2022-12-18T20:34:00.299Z,-5.40
2022-12-18T20:39:06.556Z,-5.30
2022-12-18T20:44:22.800Z,-5.20
2022-12-18T20:49:28.869Z,-5.10
2022-12-18T20:54:32.192Z,-5.10
2022-12-18T20:59:36.736Z,-5.00
2022-12-18T21:04:41.385Z,-5.00
2022-12-18T21:09:44.629Z,-5.10
2022-12-18T21:14:48.020Z,-5.00
2022-12-18T21:19:54.853Z,-4.80
2022-12-18T21:24:58.551Z,-4.80
2022-12-18T21:30:01.703Z,-4.80
2022-12-18T21:35:07.420Z,-4.80
2022-12-18T21:40:11.657Z,-4.80
2022-12-18T21:45:16.312Z,-4.80
2022-12-18T21:50:21.130Z,-4.80
2022-12-18T21:55:24.622Z,-4.80
2022-12-18T22:00:27.852Z,-4.80
2022-12-18T22:05:32.492Z,-4.80
2022-12-18T22:10:36.023Z,-4.70
2022-12-18T22:15:39.636Z,-4.70
2022-12-18T22:20:44.345Z,-4.60
2022-12-18T22:25:47.586Z,-4.50
2022-12-18T22:30:51.960Z,-4.50
2022-12-18T22:36:06.276Z,-4.40
2022-12-18T22:41:09.514Z,-4.40
2022-12-18T22:46:16.584Z,-4.30
2022-12-18T22:51:22.259Z,-4.20
2022-12-18T22:56:25.923Z,-4.20
2022-12-18T23:01:31.615Z,-4.10
2022-12-18T23:06:37.275Z,-4.10
2022-12-18T23:11:40.529Z,-4.10
2022-12-18T23:16:44.114Z,-4.00
2022-12-18T23:21:50.739Z,-4.00
2022-12-18T23:26:54.039Z,-3.90
2022-12-18T23:31:57.748Z,-3.90
2022-12-18T23:37:03.860Z,-3.90
2022-12-18T23:42:07.513Z,-3.90
2022-12-18T23:47:10.790Z,-3.80
2022-12-18T23:52:16.424Z,-3.60
2022-12-18T23:57:19.705Z,-3.60
